createdAt,value
2024-05-09T00:00:46.954Z,12.87
2024-05-09T00:03:14.822Z,12.83
2024-05-09T00:05:43.670Z,12.80
2024-05-09T00:08:12.276Z,12.76
2024-05-09T00:10:41.240Z,12.73
2024-05-09T00:13:10.913Z,12.67
2024-05-09T00:15:39.650Z,12.66
2024-05-09T00:18:08.263Z,12.63
2024-05-09T00:20:39.786Z,12.60
2024-05-09T00:23:13.706Z,12.57
2024-05-09T00:25:44.460Z,12.54
2024-05-09T00:28:13.335Z,12.51
2024-05-09T00:30:41.548Z,12.47
2024-05-09T00:33:10.814Z,12.44
2024-05-09T00:35:39.896Z,12.39
2024-05-09T00:38:08.066Z,12.35
2024-05-09T00:40:40.424Z,12.32
2024-05-09T00:43:11.400Z,12.29
2024-05-09T00:45:39.602Z,12.24
2024-05-09T00:48:09.625Z,12.21
2024-05-09T00:50:41.922Z,12.18
2024-05-09T00:53:15.373Z,12.15
2024-05-09T00:55:43.425Z,12.10
2024-05-09T00:58:15.330Z,12.06
2024-05-09T01:00:43.644Z,12.03
2024-05-09T01:03:13.502Z,12.00
2024-05-09T01:05:43.441Z,11.98
2024-05-09T01:08:12.152Z,11.95
2024-05-09T01:10:43.775Z,11.91
2024-05-09T01:13:13.033Z,11.88
2024-05-09T01:15:40.877Z,11.83
2024-05-09T01:18:14.079Z,11.79
2024-05-09T01:20:44.448Z,11.76
2024-05-09T01:23:15.894Z,11.74
2024-05-09T01:25:46.108Z,11.70
2024-05-09T01:28:15.121Z,11.65
2024-05-09T01:30:42.932Z,11.61
2024-05-09T01:33:12.133Z,11.57
2024-05-09T01:35:42.060Z,11.47
2024-05-09T01:38:14.283Z,11.45
2024-05-09T01:40:43.720Z,11.48
2024-05-09T01:43:12.235Z,11.47
2024-05-09T01:45:41.293Z,11.44
2024-05-09T01:48:10.580Z,11.35
2024-05-09T01:50:41.788Z,11.39
2024-05-09T01:53:12.787Z,11.36
2024-05-09T01:55:41.040Z,11.33
2024-05-09T01:58:09.638Z,11.29
2024-05-09T02:00:41.176Z,11.29
2024-05-09T02:03:16.830Z,11.25
2024-05-09T02:05:47.483Z,11.25
2024-05-09T02:08:19.346Z,11.24
2024-05-09T02:10:49.678Z,11.21
2024-05-09T02:13:17.986Z,11.18
2024-05-09T02:15:45.925Z,11.17
2024-05-09T02:18:14.248Z,11.16
2024-05-09T02:20:43.305Z,11.13
2024-05-09T02:23:11.966Z,11.11
2024-05-09T02:25:40.000Z,11.08
2024-05-09T02:28:07.751Z,11.06
2024-05-09T02:30:40.119Z,11.03
2024-05-09T02:33:14.358Z,11.02
2024-05-09T02:35:43.937Z,10.93
2024-05-09T02:38:12.443Z,10.96
2024-05-09T02:40:40.793Z,10.93
2024-05-09T02:43:10.797Z,10.91
2024-05-09T02:45:40.420Z,10.87
2024-05-09T02:48:12.094Z,10.86
2024-05-09T02:50:41.010Z,10.84
2024-05-09T02:53:09.937Z,10.82
2024-05-09T02:55:39.023Z,10.80
2024-05-09T02:58:10.578Z,10.79
2024-05-09T03:00:41.472Z,10.75
2024-05-09T03:03:13.694Z,10.73
2024-05-09T03:05:45.012Z,10.71
2024-05-09T03:08:13.263Z,10.67
2024-05-09T03:10:41.035Z,10.66
2024-05-09T03:13:14.573Z,10.67
2024-05-09T03:15:44.600Z,10.67
2024-05-09T03:18:12.959Z,10.66
2024-05-09T03:20:41.099Z,10.65
2024-05-09T03:23:10.048Z,10.63
2024-05-09T03:25:39.105Z,10.62
2024-05-09T03:28:07.325Z,10.60
2024-05-09T03:30:40.489Z,10.60
2024-05-09T03:33:18.648Z,10.55
2024-05-09T03:35:49.448Z,10.58
2024-05-09T03:38:17.641Z,10.60
2024-05-09T03:40:50.611Z,10.60
2024-05-09T03:43:20.087Z,10.63
2024-05-09T03:45:50.608Z,10.62
2024-05-09T03:48:18.595Z,10.63
2024-05-09T03:50:46.658Z,10.63
2024-05-09T03:53:16.305Z,10.64
2024-05-09T03:55:44.105Z,10.63
2024-05-09T03:58:14.286Z,10.66
2024-05-09T04:00:42.538Z,10.68
2024-05-09T04:03:12.228Z,10.70
2024-05-09T04:05:42.869Z,10.76
2024-05-09T04:08:13.502Z,11.01
2024-05-09T04:10:42.034Z,11.31
2024-05-09T04:13:11.009Z,11.62
2024-05-09T04:15:38.862Z,11.95
2024-05-09T04:18:06.711Z,12.22
2024-05-09T04:20:39.004Z,12.35
2024-05-09T04:23:13.634Z,12.38
2024-05-09T04:25:44.836Z,12.38
2024-05-09T04:28:13.245Z,12.34
2024-05-09T04:30:41.950Z,12.30
2024-05-09T04:33:12.695Z,12.23
2024-05-09T04:35:43.759Z,12.21
2024-05-09T04:38:12.766Z,12.17
2024-05-09T04:40:40.783Z,12.13
2024-05-09T04:43:16.160Z,12.09
2024-05-09T04:45:44.105Z,12.05
2024-05-09T04:48:12.213Z,12.04
2024-05-09T04:50:40.299Z,12.02
2024-05-09T04:53:10.501Z,12.01
2024-05-09T04:55:40.019Z,12.00
2024-05-09T04:58:10.176Z,12.01
2024-05-09T05:00:40.289Z,12.03
2024-05-09T05:03:13.288Z,12.07
2024-05-09T05:05:44.836Z,12.11
2024-05-09T05:08:15.147Z,12.16
2024-05-09T05:10:44.031Z,12.22
2024-05-09T05:13:24.938Z,12.28
2024-05-09T05:15:57.195Z,12.34
2024-05-09T05:18:29.143Z,12.37
2024-05-09T05:20:58.586Z,12.44
2024-05-09T05:23:26.470Z,12.45
2024-05-09T05:25:55.211Z,12.41
2024-05-09T05:28:23.423Z,12.37
2024-05-09T05:30:51.237Z,12.41
2024-05-09T05:33:20.287Z,12.49
2024-05-09T05:35:48.417Z,12.62
2024-05-09T05:38:16.366Z,12.69
2024-05-09T05:40:44.151Z,12.75
2024-05-09T05:43:18.351Z,12.80
2024-05-09T05:45:46.504Z,12.87
2024-05-09T05:48:18.687Z,12.89
2024-05-09T05:50:46.890Z,13.00
2024-05-09T05:53:14.779Z,13.07
2024-05-09T05:55:43.640Z,13.14
2024-05-09T05:58:12.625Z,13.29
2024-05-09T06:00:42.575Z,13.42
2024-05-09T06:03:13.017Z,13.52
2024-05-09T06:05:43.920Z,13.63
2024-05-09T06:08:12.699Z,13.70
2024-05-09T06:10:41.499Z,13.89
2024-05-09T06:13:11.469Z,14.01
2024-05-09T06:15:40.960Z,14.14
2024-05-09T06:18:11.268Z,14.30
2024-05-09T06:20:43.235Z,14.40
2024-05-09T06:23:12.176Z,14.51
2024-05-09T06:25:40.401Z,14.61
2024-05-09T06:28:08.059Z,14.74
2024-05-09T06:30:42.138Z,14.90
2024-05-09T06:33:14.143Z,14.97
2024-05-09T06:35:45.032Z,15.16
2024-05-09T06:38:13.059Z,15.29
2024-05-09T06:40:43.662Z,15.39
2024-05-09T06:43:18.256Z,15.43
2024-05-09T06:45:54.596Z,15.57
2024-05-09T06:48:23.472Z,15.67
2024-05-09T06:50:51.445Z,15.80
2024-05-09T06:53:23.610Z,15.94
2024-05-09T06:55:51.550Z,16.09
2024-05-09T06:58:19.292Z,16.26
2024-05-09T07:00:47.079Z,16.39
2024-05-09T07:03:18.147Z,16.52
2024-05-09T07:05:49.086Z,16.61
2024-05-09T07:08:18.152Z,16.68
2024-05-09T07:10:46.366Z,16.79
2024-05-09T07:13:15.769Z,16.91
2024-05-09T07:15:44.205Z,17.05
2024-05-09T07:18:15.574Z,17.21
2024-05-09T07:20:43.964Z,17.36
2024-05-09T07:23:12.932Z,17.46
2024-05-09T07:25:41.937Z,17.61
2024-05-09T07:28:19.185Z,17.73
2024-05-09T07:30:47.138Z,17.86
2024-05-09T07:33:20.235Z,17.99
2024-05-09T07:35:49.524Z,18.12
2024-05-09T07:38:17.327Z,18.27
2024-05-09T07:40:45.169Z,18.41
2024-05-09T07:43:14.211Z,18.57
2024-05-09T07:45:51.263Z,18.69
2024-05-09T07:52:39.399Z,18.97
2024-05-09T07:53:48.805Z,19.11
2024-05-09T07:56:22.304Z,19.21
2024-05-09T07:58:54.134Z,19.26
2024-05-09T08:01:22.432Z,19.31
2024-05-09T08:03:50.767Z,19.32
2024-05-09T08:06:18.607Z,19.41
2024-05-09T08:08:47.745Z,19.49
2024-05-09T08:11:15.790Z,19.58
2024-05-09T08:13:43.634Z,19.71
2024-05-09T08:16:11.550Z,19.79
2024-05-09T08:18:39.937Z,19.85
2024-05-09T08:21:07.794Z,19.93
2024-05-09T08:23:36.463Z,20.01
2024-05-09T08:26:04.181Z,20.13
2024-05-09T08:28:31.887Z,20.23
2024-05-09T08:31:00.513Z,20.23
2024-05-09T08:33:29.634Z,20.22
2024-05-09T08:35:58.664Z,20.21
2024-05-09T08:38:26.367Z,20.26
2024-05-09T08:40:54.201Z,20.29
2024-05-09T08:43:24.134Z,20.35
2024-05-09T08:45:52.020Z,20.48
2024-05-09T08:48:21.553Z,20.59
2024-05-09T08:50:51.598Z,20.66
2024-05-09T08:53:20.283Z,20.71
2024-05-09T08:55:49.848Z,20.86
2024-05-09T08:58:19.534Z,20.95
2024-05-09T09:00:48.354Z,21.03
2024-05-09T09:03:19.770Z,21.09
2024-05-09T09:06:02.806Z,21.17
2024-05-09T09:08:30.450Z,21.22
2024-05-09T09:10:59.554Z,21.28
2024-05-09T09:13:28.192Z,21.31
2024-05-09T09:15:58.678Z,21.38
2024-05-09T09:18:28.288Z,21.47
2024-05-09T09:20:57.001Z,21.59
2024-05-09T09:23:24.654Z,21.62
2024-05-09T09:25:52.360Z,21.64
2024-05-09T09:28:23.746Z,21.64
2024-05-09T09:30:51.519Z,21.69
2024-05-09T09:33:19.675Z,21.75
2024-05-09T09:35:47.639Z,21.91
2024-05-09T09:38:21.380Z,21.95
2024-05-09T09:40:50.555Z,21.98
2024-05-09T09:43:22.896Z,21.98
2024-05-09T09:45:55.176Z,22.02
2024-05-09T09:48:23.603Z,22.12
2024-05-09T09:50:56.062Z,22.21
2024-05-09T09:53:24.281Z,22.33
2024-05-09T09:55:53.826Z,22.42
2024-05-09T09:58:22.063Z,22.50
2024-05-09T10:00:49.971Z,22.50
2024-05-09T10:03:17.652Z,22.53
2024-05-09T10:05:47.273Z,22.58
2024-05-09T10:08:17.812Z,22.59
2024-05-09T10:10:48.764Z,22.64
2024-05-09T10:13:16.822Z,22.76
2024-05-09T10:15:52.513Z,22.85
2024-05-09T10:18:28.370Z,22.86
2024-05-09T10:20:59.612Z,22.83
2024-05-09T10:23:30.332Z,22.87
2024-05-09T10:26:05.224Z,22.95
2024-05-09T10:28:36.116Z,23.10
2024-05-09T10:31:16.076Z,23.12
2024-05-09T10:33:52.494Z,23.08
2024-05-09T10:36:24.228Z,23.13
2024-05-09T10:38:55.815Z,23.22
2024-05-09T10:41:24.627Z,23.37
2024-05-09T10:43:52.971Z,23.48
2024-05-09T10:46:20.776Z,23.55
2024-05-09T10:48:50.136Z,23.58
2024-05-09T10:51:19.918Z,23.47
2024-05-09T10:53:48.712Z,23.35
2024-05-09T10:56:17.522Z,23.27
2024-05-09T10:58:45.550Z,23.22
2024-05-09T11:01:14.132Z,23.20
2024-05-09T11:03:42.752Z,23.19
2024-05-09T11:06:12.123Z,23.14
2024-05-09T11:08:40.293Z,23.14
2024-05-09T11:11:08.933Z,23.15
2024-05-09T11:13:39.167Z,23.22
2024-05-09T11:16:22.469Z,23.28
2024-05-09T11:18:58.254Z,23.22
2024-05-09T11:21:26.876Z,23.13
2024-05-09T11:23:54.693Z,23.06
2024-05-09T11:26:22.702Z,22.94
2024-05-09T11:28:50.899Z,22.95
2024-05-09T11:31:19.076Z,23.10
2024-05-09T11:33:47.341Z,23.23
2024-05-09T11:36:15.269Z,23.38
2024-05-09T11:38:43.274Z,23.46
2024-05-09T11:41:18.716Z,23.46
2024-05-09T11:43:46.508Z,23.51
2024-05-09T11:46:14.518Z,23.53
2024-05-09T11:48:42.535Z,23.56
2024-05-09T11:51:10.347Z,23.61
2024-05-09T11:53:38.036Z,23.68
2024-05-09T11:56:06.015Z,23.77
2024-05-09T11:58:34.880Z,23.88
2024-05-09T12:01:03.053Z,23.98
2024-05-09T12:03:30.992Z,23.97
2024-05-09T12:05:59.020Z,23.90
2024-05-09T12:08:26.912Z,23.83
2024-05-09T12:10:54.850Z,23.87
2024-05-09T12:13:22.997Z,23.94
2024-05-09T12:15:50.995Z,23.92
2024-05-09T12:18:18.942Z,23.90
2024-05-09T12:20:46.760Z,23.91
2024-05-09T12:23:14.464Z,23.87
2024-05-09T12:25:42.220Z,23.72
2024-05-09T12:28:10.019Z,23.68
2024-05-09T12:30:40.264Z,23.57
2024-05-09T12:33:13.381Z,23.49
2024-05-09T12:35:44.317Z,23.64
2024-05-09T12:38:15.502Z,23.82
2024-05-09T12:40:43.691Z,23.96
2024-05-09T12:43:11.957Z,24.14
2024-05-09T12:45:40.721Z,24.21
2024-05-09T12:48:13.073Z,24.25
2024-05-09T12:50:42.081Z,24.24
2024-05-09T12:53:10.207Z,24.28
2024-05-09T12:55:45.019Z,24.23
2024-05-09T12:58:22.505Z,24.16
2024-05-09T13:00:52.074Z,24.22
2024-05-09T13:03:20.298Z,24.28
2024-05-09T13:05:48.260Z,24.39
2024-05-09T13:08:16.255Z,24.46
2024-05-09T13:10:44.100Z,24.42
2024-05-09T13:13:12.087Z,24.35
2024-05-09T13:15:40.121Z,24.41
2024-05-09T13:18:08.144Z,24.52
2024-05-09T13:20:37.547Z,24.60
2024-05-09T13:23:07.891Z,24.57
2024-05-09T13:25:37.741Z,24.49
2024-05-09T13:28:07.641Z,24.55
2024-05-09T13:30:40.423Z,24.60
2024-05-09T13:33:11.866Z,24.66
2024-05-09T13:35:46.929Z,24.71
2024-05-09T13:38:19.247Z,24.81
2024-05-09T13:40:48.013Z,24.94
2024-05-09T13:43:16.107Z,24.97
2024-05-09T13:45:44.058Z,25.06
2024-05-09T13:48:12.086Z,24.95
2024-05-09T13:50:40.021Z,24.87
2024-05-09T13:53:08.935Z,25.02
2024-05-09T13:55:40.491Z,25.08
2024-05-09T13:58:09.584Z,25.18
2024-05-09T14:00:46.150Z,25.24
2024-05-09T14:03:19.316Z,25.25
2024-05-09T14:05:49.352Z,25.25
2024-05-09T14:08:19.467Z,25.27
2024-05-09T14:10:47.585Z,25.24
2024-05-09T14:13:16.167Z,25.21
2024-05-09T14:15:44.007Z,25.26
2024-05-09T14:18:13.832Z,25.31
2024-05-09T14:20:43.319Z,25.38
2024-05-09T14:23:11.382Z,25.44
2024-05-09T14:25:42.371Z,25.51
2024-05-09T14:28:12.530Z,25.55
2024-05-09T14:30:40.979Z,25.57
2024-05-09T14:33:09.589Z,25.62
2024-05-09T14:35:38.831Z,25.65
2024-05-09T14:38:08.688Z,25.62
2024-05-09T14:40:42.202Z,25.68
2024-05-09T14:43:13.570Z,25.69
2024-05-09T14:45:42.177Z,25.70
2024-05-09T14:48:10.572Z,25.72
2024-05-09T14:50:40.306Z,25.71
2024-05-09T14:53:10.567Z,25.77
2024-05-09T14:55:40.734Z,25.73
2024-05-09T14:58:10.776Z,25.71
2024-05-09T15:00:47.809Z,25.71
2024-05-09T15:03:22.419Z,25.68
2024-05-09T15:05:51.185Z,25.72
2024-05-09T15:08:20.284Z,25.74
2024-05-09T15:10:49.965Z,25.79
2024-05-09T15:13:18.782Z,25.78
2024-05-09T15:15:46.805Z,25.59
2024-05-09T15:18:15.769Z,25.39
2024-05-09T15:20:45.399Z,25.32
2024-05-09T15:23:13.392Z,25.34
2024-05-09T15:25:41.220Z,25.44
2024-05-09T15:28:09.095Z,25.52
2024-05-09T15:30:37.593Z,25.60
2024-05-09T15:33:07.123Z,25.69
2024-05-09T15:35:36.297Z,25.78
2024-05-09T15:38:04.785Z,25.82
2024-05-09T15:40:39.135Z,25.92
2024-05-09T15:43:10.582Z,25.98
2024-05-09T15:45:40.942Z,25.99
2024-05-09T15:48:10.522Z,26.01
2024-05-09T15:50:41.344Z,26.04
2024-05-09T15:53:13.365Z,25.82
2024-05-09T15:55:42.183Z,25.59
2024-05-09T15:58:10.292Z,25.41
2024-05-09T16:00:41.624Z,25.27
2024-05-09T16:03:12.542Z,25.20
2024-05-09T16:05:42.049Z,25.26
2024-05-09T16:08:10.109Z,25.34
2024-05-09T16:10:44.460Z,25.40
2024-05-09T16:13:13.394Z,25.47
2024-05-09T16:15:41.213Z,25.39
2024-05-09T16:18:09.068Z,25.23
2024-05-09T16:20:40.399Z,25.14
2024-05-09T16:23:10.267Z,25.12
2024-05-09T16:25:38.412Z,25.08
2024-05-09T16:28:09.948Z,25.05
2024-05-09T16:30:41.903Z,25.13
2024-05-09T16:33:10.905Z,25.17
2024-05-09T16:35:39.604Z,25.16
2024-05-09T16:38:07.530Z,25.16
2024-05-09T16:40:39.269Z,25.05
2024-05-09T16:43:13.540Z,24.99
2024-05-09T16:45:44.812Z,25.05
2024-05-09T16:48:14.069Z,25.13
2024-05-09T16:50:41.982Z,25.17
2024-05-09T16:53:09.788Z,25.25
2024-05-09T16:55:38.488Z,25.33
2024-05-09T16:58:08.350Z,25.40
2024-05-09T17:00:41.551Z,25.51
2024-05-09T17:03:14.692Z,25.56
2024-05-09T17:05:43.940Z,25.60
2024-05-09T17:08:11.889Z,25.65
2024-05-09T17:10:39.611Z,25.69
2024-05-09T17:13:08.234Z,25.73
2024-05-09T17:15:37.652Z,25.73
2024-05-09T17:18:07.379Z,25.71
2024-05-09T17:20:37.710Z,25.72
2024-05-09T17:23:13.631Z,25.68
2024-05-09T17:25:42.300Z,25.55
2024-05-09T17:28:10.869Z,25.49
2024-05-09T17:30:40.746Z,25.43
2024-05-09T17:33:11.255Z,25.40
2024-05-09T17:35:40.121Z,25.35
2024-05-09T17:38:08.169Z,25.31
2024-05-09T17:40:37.819Z,25.25
2024-05-09T17:43:09.519Z,25.15
2024-05-09T17:45:40.771Z,25.10
2024-05-09T17:48:10.797Z,25.02
2024-05-09T17:50:40.087Z,24.96
2024-05-09T17:53:09.328Z,24.88
2024-05-09T17:55:37.369Z,24.79
2024-05-09T17:58:05.989Z,24.76
2024-05-09T18:00:40.158Z,24.70
2024-05-09T18:03:12.094Z,24.63
2024-05-09T18:05:41.604Z,24.55
2024-05-09T18:08:09.779Z,24.48
2024-05-09T18:10:39.751Z,24.41
2024-05-09T18:13:09.486Z,24.33
2024-05-09T18:15:38.540Z,24.26
2024-05-09T18:18:07.526Z,24.18
2024-05-09T18:20:42.518Z,24.10
2024-05-09T18:23:18.694Z,24.00
2024-05-09T18:25:47.771Z,23.89
2024-05-09T18:28:16.961Z,23.84
2024-05-09T18:30:45.268Z,23.76
2024-05-09T18:33:13.511Z,23.68
2024-05-09T18:35:45.729Z,23.59
2024-05-09T18:38:13.665Z,23.51
2024-05-09T18:40:43.781Z,23.45
2024-05-09T18:43:13.690Z,23.31
2024-05-09T18:45:41.545Z,23.07
2024-05-09T18:48:10.266Z,22.73
2024-05-09T18:50:40.649Z,22.43
2024-05-09T18:53:11.816Z,22.16
2024-05-09T18:55:40.979Z,21.92
2024-05-09T18:58:08.735Z,21.73
2024-05-09T19:00:39.141Z,21.57
2024-05-09T19:03:12.206Z,21.46
2024-05-09T19:05:46.132Z,21.36
2024-05-09T19:08:15.301Z,21.29
2024-05-09T19:10:45.345Z,21.24
2024-05-09T19:13:14.326Z,21.17
2024-05-09T19:15:43.675Z,21.17
2024-05-09T19:18:13.911Z,21.11
2024-05-09T19:20:42.362Z,21.07
2024-05-09T19:23:11.619Z,21.09
2024-05-09T19:25:39.495Z,21.10
2024-05-09T19:28:07.467Z,21.04
2024-05-09T19:30:40.240Z,21.08
2024-05-09T19:33:14.927Z,21.08
2024-05-09T19:35:43.887Z,21.07
2024-05-09T19:38:12.364Z,21.02
2024-05-09T19:40:40.243Z,21.04
2024-05-09T19:43:08.159Z,21.02
2024-05-09T19:45:36.590Z,21.03
2024-05-09T19:48:06.033Z,21.00
2024-05-09T19:50:41.437Z,21.00
2024-05-09T19:53:13.177Z,21.00
2024-05-09T19:55:41.880Z,20.96
2024-05-09T19:58:11.047Z,20.96
2024-05-09T20:00:42.115Z,20.95
2024-05-09T20:03:15.082Z,20.92
2024-05-09T20:05:46.772Z,20.88
2024-05-09T20:08:15.092Z,20.84
2024-05-09T20:10:42.963Z,20.82
2024-05-09T20:13:10.826Z,20.77
2024-05-09T20:15:39.915Z,20.73
2024-05-09T20:18:07.857Z,20.67
2024-05-09T20:20:40.062Z,20.60
2024-05-09T20:23:12.290Z,20.56
2024-05-09T20:25:40.590Z,20.49
2024-05-09T20:28:08.604Z,20.49
2024-05-09T20:30:37.010Z,20.46
2024-05-09T20:33:07.609Z,20.44
2024-05-09T20:35:36.857Z,20.41
2024-05-09T20:38:05.006Z,20.37
2024-05-09T20:40:36.790Z,20.34
2024-05-09T20:43:09.273Z,20.28
2024-05-09T20:45:37.618Z,20.25
2024-05-09T20:48:06.237Z,20.20
2024-05-09T20:50:39.283Z,20.15
2024-05-09T20:53:14.254Z,20.10
2024-05-09T20:55:44.738Z,20.06
2024-05-09T20:58:13.319Z,20.00
2024-05-09T21:00:44.389Z,19.95
2024-05-09T21:03:16.870Z,19.90
2024-05-09T21:05:45.909Z,19.85
2024-05-09T21:08:13.995Z,19.80
2024-05-09T21:10:41.898Z,19.76
2024-05-09T21:13:09.728Z,19.70
2024-05-09T21:15:37.609Z,19.67
2024-05-09T21:18:05.522Z,19.62
2024-05-09T21:20:34.921Z,19.59
2024-05-09T21:23:03.734Z,19.55
2024-05-09T21:25:32.286Z,19.52
2024-05-09T21:28:00.673Z,19.49
2024-05-09T21:30:38.379Z,19.47
2024-05-09T21:33:11.675Z,19.45
2024-05-09T21:35:42.268Z,19.35
2024-05-09T21:38:10.088Z,19.39
2024-05-09T21:40:38.615Z,19.35
2024-05-09T21:43:08.150Z,19.33
2024-05-09T21:45:37.230Z,19.31
2024-05-09T21:48:05.937Z,19.30
2024-05-09T21:50:39.934Z,19.30
2024-05-09T21:53:13.505Z,19.31
2024-05-09T21:55:42.718Z,19.25
2024-05-09T21:58:10.975Z,19.27
2024-05-09T22:00:40.127Z,19.27
2024-05-09T22:03:09.050Z,19.23
2024-05-09T22:05:37.998Z,19.25
2024-05-09T22:08:06.604Z,19.26
2024-05-09T22:10:36.302Z,19.24
2024-05-09T22:13:06.742Z,19.24
2024-05-09T22:15:40.079Z,19.23
2024-05-09T22:18:10.357Z,19.21
2024-05-09T22:20:45.520Z,19.21
2024-05-09T22:23:15.646Z,19.19
2024-05-09T22:25:43.431Z,19.18
2024-05-09T22:28:12.310Z,19.17
2024-05-09T22:30:40.556Z,19.15
2024-05-09T22:33:10.675Z,19.15
2024-05-09T22:35:40.982Z,19.14
2024-05-09T22:38:09.163Z,19.14
2024-05-09T22:40:45.617Z,19.14
2024-05-09T22:43:24.787Z,19.13
2024-05-09T22:45:56.330Z,19.08
2024-05-09T22:48:25.456Z,19.12
2024-05-09T22:50:54.564Z,19.12
2024-05-09T22:53:25.849Z,19.11
2024-05-09T22:55:54.119Z,19.10
2024-05-09T22:58:22.366Z,19.10
2024-05-09T23:00:50.489Z,19.10
2024-05-09T23:03:21.242Z,19.08
2024-05-09T23:05:49.601Z,19.07
2024-05-09T23:08:17.304Z,19.04
2024-05-09T23:10:45.031Z,19.08
2024-05-09T23:13:12.769Z,19.09
2024-05-09T23:15:40.532Z,19.09
2024-05-09T23:18:08.754Z,19.09
2024-05-09T23:20:39.221Z,19.10
2024-05-09T23:23:08.999Z,19.10
2024-05-09T23:25:37.907Z,19.09
2024-05-09T23:28:06.447Z,19.08
2024-05-09T23:30:38.732Z,19.06
2024-05-09T23:33:11.108Z,19.04
2024-05-09T23:35:41.245Z,19.05
2024-05-09T23:38:08.926Z,19.04
2024-05-09T23:40:39.895Z,19.04
2024-05-09T23:43:13.229Z,19.02
2024-05-09T23:45:42.127Z,19.02
2024-05-09T23:48:11.093Z,19.02
2024-05-09T23:50:40.366Z,19.01
2024-05-09T23:53:09.769Z,18.99
2024-05-09T23:55:38.390Z,18.99
2024-05-09T23:58:07.420Z,18.98
